sensor_id;sensor_type;location;lat;lon;timestamp;P1;durP1;ratioP1;P2;durP2;ratioP2
56477;SDS011;42382;53.210;5.772;2022-07-29T00:02:11;2.85;;;0.32;;
56477;SDS011;42382;53.210;5.772;2022-07-29T00:04:36;2.35;;;0.30;;
56477;SDS011;42382;53.210;5.772;2022-07-29T00:07:03;1.98;;;0.20;;
56477;SDS011;42382;53.210;5.772;2022-07-29T00:09:28;2.00;;;0.35;;
56477;SDS011;42382;53.210;5.772;2022-07-29T00:11:55;2.53;;;0.20;;
56477;SDS011;42382;53.210;5.772;2022-07-29T00:14:23;2.10;;;0.22;;
56477;SDS011;42382;53.210;5.772;2022-07-29T00:16:48;2.78;;;0.20;;
56477;SDS011;42382;53.210;5.772;2022-07-29T00:19:14;1.35;;;0.20;;
56477;SDS011;42382;53.210;5.772;2022-07-29T00:21:40;2.40;;;0.40;;
56477;SDS011;42382;53.210;5.772;2022-07-29T00:24:05;0.93;;;0.20;;
56477;SDS011;42382;53.210;5.772;2022-07-29T00:26:31;2.22;;;0.22;;
56477;SDS011;42382;53.210;5.772;2022-07-29T00:29:00;1.50;;;0.17;;
56477;SDS011;42382;53.210;5.772;2022-07-29T00:31:27;2.33;;;0.60;;
56477;SDS011;42382;53.210;5.772;2022-07-29T00:33:54;3.25;;;0.20;;
56477;SDS011;42382;53.210;5.772;2022-07-29T00:36:20;1.20;;;0.30;;
56477;SDS011;42382;53.210;5.772;2022-07-29T00:38:46;3.38;;;0.30;;
56477;SDS011;42382;53.210;5.772;2022-07-29T00:41:16;2.00;;;0.30;;
56477;SDS011;42382;53.210;5.772;2022-07-29T00:43:42;2.72;;;0.20;;
56477;SDS011;42382;53.210;5.772;2022-07-29T00:46:09;4.82;;;0.65;;
56477;SDS011;42382;53.210;5.772;2022-07-29T00:48:35;5.72;;;0.70;;
56477;SDS011;42382;53.210;5.772;2022-07-29T00:51:01;2.92;;;0.30;;
56477;SDS011;42382;53.210;5.772;2022-07-29T00:53:27;3.08;;;0.40;;
56477;SDS011;42382;53.210;5.772;2022-07-29T00:55:54;2.85;;;0.20;;
56477;SDS011;42382;53.210;5.772;2022-07-29T00:58:21;2.28;;;0.28;;
56477;SDS011;42382;53.210;5.772;2022-07-29T01:00:47;3.33;;;0.50;;
56477;SDS011;42382;53.210;5.772;2022-07-29T01:03:13;1.52;;;0.13;;
56477;SDS011;42382;53.210;5.772;2022-07-29T01:05:38;2.00;;;0.20;;
56477;SDS011;42382;53.210;5.772;2022-07-29T01:08:06;0.77;;;0.20;;
56477;SDS011;42382;53.210;5.772;2022-07-29T01:10:32;1.95;;;0.30;;
56477;SDS011;42382;53.210;5.772;2022-07-29T01:13:01;4.53;;;0.50;;
56477;SDS011;42382;53.210;5.772;2022-07-29T01:15:26;3.10;;;0.30;;
56477;SDS011;42382;53.210;5.772;2022-07-29T01:18:11;2.00;;;0.28;;
56477;SDS011;42382;53.210;5.772;2022-07-29T01:23:52;0.98;;;0.22;;
56477;SDS011;42382;53.210;5.772;2022-07-29T01:26:42;1.40;;;0.30;;
56477;SDS011;42382;53.210;5.772;2022-07-29T01:32:02;2.08;;;0.40;;
56477;SDS011;42382;53.210;5.772;2022-07-29T01:37:44;1.70;;;0.20;;
56477;SDS011;42382;53.210;5.772;2022-07-29T01:40:47;3.63;;;0.50;;
56477;SDS011;42382;53.210;5.772;2022-07-29T01:43:06;1.90;;;0.30;;
56477;SDS011;42382;53.210;5.772;2022-07-29T01:45:53;1.98;;;0.20;;
56477;SDS011;42382;53.210;5.772;2022-07-29T01:48:24;4.57;;;0.50;;
56477;SDS011;42382;53.210;5.772;2022-07-29T01:51:07;2.88;;;0.55;;
56477;SDS011;42382;53.210;5.772;2022-07-29T01:56:51;1.95;;;0.57;;
56477;SDS011;42382;53.210;5.772;2022-07-29T01:59:21;3.28;;;0.40;;
56477;SDS011;42382;53.210;5.772;2022-07-29T02:01:48;3.90;;;0.63;;
56477;SDS011;42382;53.210;5.772;2022-07-29T02:04:17;2.92;;;0.30;;
56477;SDS011;42382;53.210;5.772;2022-07-29T02:06:45;2.03;;;0.28;;
56477;SDS011;42382;53.210;5.772;2022-07-29T02:09:14;1.58;;;0.30;;
56477;SDS011;42382;53.210;5.772;2022-07-29T02:11:40;3.00;;;0.45;;
56477;SDS011;42382;53.210;5.772;2022-07-29T02:14:13;1.92;;;0.30;;
56477;SDS011;42382;53.210;5.772;2022-07-29T02:16:40;1.52;;;0.32;;
56477;SDS011;42382;53.210;5.772;2022-07-29T02:19:07;2.47;;;0.47;;
56477;SDS011;42382;53.210;5.772;2022-07-29T02:21:34;4.10;;;0.57;;
56477;SDS011;42382;53.210;5.772;2022-07-29T02:24:01;2.05;;;0.63;;
56477;SDS011;42382;53.210;5.772;2022-07-29T02:26:29;3.50;;;0.40;;
56477;SDS011;42382;53.210;5.772;2022-07-29T02:28:57;2.38;;;0.43;;
56477;SDS011;42382;53.210;5.772;2022-07-29T02:31:25;3.28;;;0.30;;
56477;SDS011;42382;53.210;5.772;2022-07-29T02:33:54;4.60;;;0.50;;
56477;SDS011;42382;53.210;5.772;2022-07-29T02:36:22;2.20;;;0.35;;
56477;SDS011;42382;53.210;5.772;2022-07-29T02:38:50;3.83;;;0.68;;
56477;SDS011;42382;53.210;5.772;2022-07-29T02:41:17;1.58;;;0.40;;
56477;SDS011;42382;53.210;5.772;2022-07-29T02:44:09;4.47;;;0.40;;
56477;SDS011;42382;53.210;5.772;2022-07-29T02:46:37;3.05;;;0.40;;
56477;SDS011;42382;53.210;5.772;2022-07-29T02:54:56;3.97;;;0.75;;
56477;SDS011;42382;53.210;5.772;2022-07-29T02:57:32;5.63;;;1.05;;
56477;SDS011;42382;53.210;5.772;2022-07-29T03:00:03;5.07;;;0.40;;
56477;SDS011;42382;53.210;5.772;2022-07-29T03:02:33;3.15;;;0.40;;
56477;SDS011;42382;53.210;5.772;2022-07-29T03:05:02;1.88;;;0.60;;
56477;SDS011;42382;53.210;5.772;2022-07-29T03:07:31;4.70;;;0.77;;
56477;SDS011;42382;53.210;5.772;2022-07-29T03:09:58;2.55;;;0.52;;
56477;SDS011;42382;53.210;5.772;2022-07-29T03:12:25;3.47;;;0.40;;
56477;SDS011;42382;53.210;5.772;2022-07-29T03:14:51;2.45;;;0.52;;
56477;SDS011;42382;53.210;5.772;2022-07-29T03:17:17;1.70;;;0.30;;
56477;SDS011;42382;53.210;5.772;2022-07-29T03:19:43;1.98;;;0.40;;
56477;SDS011;42382;53.210;5.772;2022-07-29T03:22:09;1.63;;;0.22;;
56477;SDS011;42382;53.210;5.772;2022-07-29T03:24:36;2.13;;;0.40;;
56477;SDS011;42382;53.210;5.772;2022-07-29T03:27:02;2.88;;;0.52;;
56477;SDS011;42382;53.210;5.772;2022-07-29T03:29:28;1.92;;;0.40;;
56477;SDS011;42382;53.210;5.772;2022-07-29T03:31:54;3.25;;;0.50;;
56477;SDS011;42382;53.210;5.772;2022-07-29T03:34:20;4.38;;;0.50;;
56477;SDS011;42382;53.210;5.772;2022-07-29T03:36:46;4.38;;;0.88;;
56477;SDS011;42382;53.210;5.772;2022-07-29T03:39:13;2.28;;;0.52;;
56477;SDS011;42382;53.210;5.772;2022-07-29T03:41:46;2.28;;;0.35;;
56477;SDS011;42382;53.210;5.772;2022-07-29T03:44:15;3.58;;;0.60;;
56477;SDS011;42382;53.210;5.772;2022-07-29T03:46:43;2.83;;;0.47;;
56477;SDS011;42382;53.210;5.772;2022-07-29T03:49:09;2.63;;;0.50;;
56477;SDS011;42382;53.210;5.772;2022-07-29T03:51:36;2.72;;;0.52;;
56477;SDS011;42382;53.210;5.772;2022-07-29T03:54:02;2.20;;;0.30;;
56477;SDS011;42382;53.210;5.772;2022-07-29T03:56:29;5.55;;;0.40;;
56477;SDS011;42382;53.210;5.772;2022-07-29T03:58:57;3.53;;;0.47;;
56477;SDS011;42382;53.210;5.772;2022-07-29T04:01:23;1.10;;;0.30;;
56477;SDS011;42382;53.210;5.772;2022-07-29T04:03:51;4.28;;;0.77;;
56477;SDS011;42382;53.210;5.772;2022-07-29T04:06:17;3.00;;;0.38;;
56477;SDS011;42382;53.210;5.772;2022-07-29T04:08:42;3.42;;;0.60;;
56477;SDS011;42382;53.210;5.772;2022-07-29T04:11:08;2.95;;;0.52;;
56477;SDS011;42382;53.210;5.772;2022-07-29T04:13:34;2.67;;;0.40;;
56477;SDS011;42382;53.210;5.772;2022-07-29T04:15:59;3.00;;;0.35;;
56477;SDS011;42382;53.210;5.772;2022-07-29T04:18:26;5.85;;;0.38;;
56477;SDS011;42382;53.210;5.772;2022-07-29T04:20:51;2.22;;;0.40;;
56477;SDS011;42382;53.210;5.772;2022-07-29T04:23:17;3.08;;;0.60;;
56477;SDS011;42382;53.210;5.772;2022-07-29T04:25:43;4.45;;;0.63;;
56477;SDS011;42382;53.210;5.772;2022-07-29T04:28:09;4.50;;;0.45;;
56477;SDS011;42382;53.210;5.772;2022-07-29T04:30:35;0.82;;;0.35;;
56477;SDS011;42382;53.210;5.772;2022-07-29T04:33:02;4.35;;;0.55;;
56477;SDS011;42382;53.210;5.772;2022-07-29T04:35:29;3.45;;;0.80;;
56477;SDS011;42382;53.210;5.772;2022-07-29T04:37:56;4.45;;;0.50;;
56477;SDS011;42382;53.210;5.772;2022-07-29T04:40:21;2.08;;;0.28;;
56477;SDS011;42382;53.210;5.772;2022-07-29T04:42:47;1.50;;;0.30;;
56477;SDS011;42382;53.210;5.772;2022-07-29T04:45:13;3.83;;;0.38;;
56477;SDS011;42382;53.210;5.772;2022-07-29T04:47:39;3.28;;;0.40;;
56477;SDS011;42382;53.210;5.772;2022-07-29T04:50:04;3.83;;;0.45;;
56477;SDS011;42382;53.210;5.772;2022-07-29T04:55:18;3.35;;;0.47;;
56477;SDS011;42382;53.210;5.772;2022-07-29T04:57:43;6.28;;;0.50;;
56477;SDS011;42382;53.210;5.772;2022-07-29T05:00:09;2.63;;;0.32;;
56477;SDS011;42382;53.210;5.772;2022-07-29T05:02:35;3.83;;;0.47;;
56477;SDS011;42382;53.210;5.772;2022-07-29T05:05:01;10.10;;;0.60;;
56477;SDS011;42382;53.210;5.772;2022-07-29T05:07:26;1.83;;;0.20;;
56477;SDS011;42382;53.210;5.772;2022-07-29T05:09:52;3.15;;;0.68;;
56477;SDS011;42382;53.210;5.772;2022-07-29T05:12:18;3.33;;;0.50;;
56477;SDS011;42382;53.210;5.772;2022-07-29T05:14:43;2.67;;;0.38;;
56477;SDS011;42382;53.210;5.772;2022-07-29T05:17:09;1.52;;;0.30;;
56477;SDS011;42382;53.210;5.772;2022-07-29T05:19:34;3.70;;;0.60;;
56477;SDS011;42382;53.210;5.772;2022-07-29T05:22:00;2.30;;;0.40;;
56477;SDS011;42382;53.210;5.772;2022-07-29T05:24:26;2.72;;;0.60;;
56477;SDS011;42382;53.210;5.772;2022-07-29T05:26:51;3.10;;;0.40;;
56477;SDS011;42382;53.210;5.772;2022-07-29T05:29:17;3.60;;;0.60;;
56477;SDS011;42382;53.210;5.772;2022-07-29T05:31:42;3.03;;;0.30;;
56477;SDS011;42382;53.210;5.772;2022-07-29T05:34:08;3.92;;;0.30;;
56477;SDS011;42382;53.210;5.772;2022-07-29T05:36:33;2.88;;;0.50;;
56477;SDS011;42382;53.210;5.772;2022-07-29T05:38:59;4.40;;;0.73;;
56477;SDS011;42382;53.210;5.772;2022-07-29T05:41:25;3.58;;;0.47;;
56477;SDS011;42382;53.210;5.772;2022-07-29T05:43:50;3.38;;;0.40;;
56477;SDS011;42382;53.210;5.772;2022-07-29T05:46:16;2.28;;;0.43;;
56477;SDS011;42382;53.210;5.772;2022-07-29T05:48:41;2.80;;;0.77;;
56477;SDS011;42382;53.210;5.772;2022-07-29T05:51:07;3.22;;;0.45;;
56477;SDS011;42382;53.210;5.772;2022-07-29T05:53:32;2.92;;;0.55;;
56477;SDS011;42382;53.210;5.772;2022-07-29T05:55:58;4.97;;;0.70;;
56477;SDS011;42382;53.210;5.772;2022-07-29T05:58:28;4.53;;;0.85;;
56477;SDS011;42382;53.210;5.772;2022-07-29T06:00:53;3.33;;;0.40;;
56477;SDS011;42382;53.210;5.772;2022-07-29T06:03:23;2.55;;;0.40;;
56477;SDS011;42382;53.210;5.772;2022-07-29T06:05:50;6.45;;;0.50;;
56477;SDS011;42382;53.210;5.772;2022-07-29T06:08:15;3.63;;;0.40;;
56477;SDS011;42382;53.210;5.772;2022-07-29T06:10:42;4.45;;;0.40;;
56477;SDS011;42382;53.210;5.772;2022-07-29T06:13:07;2.38;;;0.30;;
56477;SDS011;42382;53.210;5.772;2022-07-29T06:15:33;3.10;;;0.60;;
56477;SDS011;42382;53.210;5.772;2022-07-29T06:17:59;9.13;;;1.00;;
56477;SDS011;42382;53.210;5.772;2022-07-29T06:20:25;3.90;;;0.45;;
56477;SDS011;42382;53.210;5.772;2022-07-29T06:22:51;7.03;;;0.40;;
56477;SDS011;42382;53.210;5.772;2022-07-29T06:25:17;7.13;;;1.00;;
56477;SDS011;42382;53.210;5.772;2022-07-29T06:27:43;3.17;;;0.30;;
56477;SDS011;42382;53.210;5.772;2022-07-29T06:30:08;3.78;;;0.38;;
56477;SDS011;42382;53.210;5.772;2022-07-29T06:32:35;3.70;;;0.35;;
56477;SDS011;42382;53.210;5.772;2022-07-29T06:35:01;3.70;;;0.40;;
56477;SDS011;42382;53.210;5.772;2022-07-29T06:37:26;5.40;;;0.60;;
56477;SDS011;42382;53.210;5.772;2022-07-29T06:39:52;2.45;;;0.70;;
56477;SDS011;42382;53.210;5.772;2022-07-29T06:42:41;5.40;;;0.45;;
56477;SDS011;42382;53.210;5.772;2022-07-29T06:45:07;3.65;;;0.40;;
56477;SDS011;42382;53.210;5.772;2022-07-29T06:47:33;4.65;;;1.05;;
56477;SDS011;42382;53.210;5.772;2022-07-29T06:49:59;4.80;;;0.45;;
56477;SDS011;42382;53.210;5.772;2022-07-29T06:52:25;3.65;;;0.25;;
56477;SDS011;42382;53.210;5.772;2022-07-29T06:54:50;4.82;;;0.40;;
56477;SDS011;42382;53.210;5.772;2022-07-29T06:57:16;2.85;;;0.43;;
56477;SDS011;42382;53.210;5.772;2022-07-29T06:59:41;2.65;;;0.50;;
56477;SDS011;42382;53.210;5.772;2022-07-29T07:02:07;5.20;;;0.95;;
56477;SDS011;42382;53.210;5.772;2022-07-29T07:04:32;8.07;;;0.50;;
56477;SDS011;42382;53.210;5.772;2022-07-29T07:06:58;2.80;;;0.30;;
56477;SDS011;42382;53.210;5.772;2022-07-29T07:09:24;3.40;;;0.40;;
56477;SDS011;42382;53.210;5.772;2022-07-29T07:11:50;2.13;;;0.70;;
56477;SDS011;42382;53.210;5.772;2022-07-29T07:14:15;3.30;;;0.55;;
56477;SDS011;42382;53.210;5.772;2022-07-29T07:16:41;2.58;;;0.40;;
56477;SDS011;42382;53.210;5.772;2022-07-29T07:19:06;2.95;;;0.40;;
56477;SDS011;42382;53.210;5.772;2022-07-29T07:21:32;3.70;;;0.38;;
56477;SDS011;42382;53.210;5.772;2022-07-29T07:23:58;2.47;;;0.82;;
56477;SDS011;42382;53.210;5.772;2022-07-29T07:26:24;3.22;;;0.30;;
56477;SDS011;42382;53.210;5.772;2022-07-29T07:28:51;4.68;;;0.50;;
56477;SDS011;42382;53.210;5.772;2022-07-29T07:31:16;4.05;;;0.55;;
56477;SDS011;42382;53.210;5.772;2022-07-29T07:33:42;2.78;;;0.50;;
56477;SDS011;42382;53.210;5.772;2022-07-29T07:36:07;2.60;;;0.43;;
56477;SDS011;42382;53.210;5.772;2022-07-29T07:38:33;3.28;;;0.68;;
56477;SDS011;42382;53.210;5.772;2022-07-29T07:40:59;2.55;;;0.30;;
56477;SDS011;42382;53.210;5.772;2022-07-29T07:43:25;2.22;;;0.32;;
56477;SDS011;42382;53.210;5.772;2022-07-29T07:45:51;2.70;;;0.30;;
56477;SDS011;42382;53.210;5.772;2022-07-29T07:48:16;2.75;;;1.02;;
56477;SDS011;42382;53.210;5.772;2022-07-29T07:50:42;5.03;;;0.50;;
56477;SDS011;42382;53.210;5.772;2022-07-29T07:53:08;3.95;;;0.40;;
56477;SDS011;42382;53.210;5.772;2022-07-29T07:55:38;4.20;;;0.82;;
56477;SDS011;42382;53.210;5.772;2022-07-29T07:58:05;2.55;;;0.43;;
56477;SDS011;42382;53.210;5.772;2022-07-29T08:00:31;4.00;;;0.55;;
56477;SDS011;42382;53.210;5.772;2022-07-29T08:02:57;2.05;;;0.50;;
56477;SDS011;42382;53.210;5.772;2022-07-29T08:05:23;4.28;;;0.73;;
56477;SDS011;42382;53.210;5.772;2022-07-29T08:07:49;6.40;;;0.55;;
56477;SDS011;42382;53.210;5.772;2022-07-29T08:10:15;4.32;;;0.50;;
56477;SDS011;42382;53.210;5.772;2022-07-29T08:13:05;2.05;;;0.30;;
56477;SDS011;42382;53.210;5.772;2022-07-29T08:15:31;3.28;;;0.40;;
56477;SDS011;42382;53.210;5.772;2022-07-29T08:17:57;3.58;;;0.50;;
56477;SDS011;42382;53.210;5.772;2022-07-29T08:20:23;4.32;;;0.55;;
56477;SDS011;42382;53.210;5.772;2022-07-29T08:22:49;3.15;;;0.60;;
56477;SDS011;42382;53.210;5.772;2022-07-29T08:25:14;1.45;;;0.40;;
56477;SDS011;42382;53.210;5.772;2022-07-29T08:27:40;4.00;;;0.45;;
56477;SDS011;42382;53.210;5.772;2022-07-29T08:30:06;4.55;;;0.50;;
56477;SDS011;42382;53.210;5.772;2022-07-29T08:32:32;4.82;;;1.02;;
56477;SDS011;42382;53.210;5.772;2022-07-29T08:34:57;4.90;;;0.50;;
56477;SDS011;42382;53.210;5.772;2022-07-29T08:37:23;4.00;;;0.50;;
56477;SDS011;42382;53.210;5.772;2022-07-29T08:39:48;2.63;;;0.47;;
56477;SDS011;42382;53.210;5.772;2022-07-29T08:42:14;3.22;;;0.52;;
56477;SDS011;42382;53.210;5.772;2022-07-29T08:44:41;3.28;;;0.70;;
56477;SDS011;42382;53.210;5.772;2022-07-29T08:47:07;4.30;;;0.68;;
56477;SDS011;42382;53.210;5.772;2022-07-29T08:49:33;3.80;;;0.50;;
56477;SDS011;42382;53.210;5.772;2022-07-29T08:52:00;3.65;;;0.40;;
56477;SDS011;42382;53.210;5.772;2022-07-29T08:54:26;1.67;;;0.30;;
56477;SDS011;42382;53.210;5.772;2022-07-29T08:56:52;5.65;;;0.50;;
56477;SDS011;42382;53.210;5.772;2022-07-29T08:59:19;3.15;;;0.85;;
56477;SDS011;42382;53.210;5.772;2022-07-29T09:01:46;4.10;;;0.40;;
56477;SDS011;42382;53.210;5.772;2022-07-29T09:04:13;3.58;;;0.57;;
56477;SDS011;42382;53.210;5.772;2022-07-29T09:06:44;2.67;;;0.68;;
56477;SDS011;42382;53.210;5.772;2022-07-29T09:09:11;5.32;;;0.43;;
56477;SDS011;42382;53.210;5.772;2022-07-29T09:11:38;4.78;;;0.65;;
56477;SDS011;42382;53.210;5.772;2022-07-29T09:14:04;3.65;;;0.47;;
56477;SDS011;42382;53.210;5.772;2022-07-29T09:16:43;3.22;;;0.60;;
56477;SDS011;42382;53.210;5.772;2022-07-29T09:19:52;8.20;;;1.13;;
56477;SDS011;42382;53.210;5.772;2022-07-29T09:22:11;2.67;;;0.60;;
56477;SDS011;42382;53.210;5.772;2022-07-29T09:24:44;2.15;;;0.50;;
56477;SDS011;42382;53.210;5.772;2022-07-29T09:27:33;4.75;;;0.50;;
56477;SDS011;42382;53.210;5.772;2022-07-29T09:29:59;5.97;;;0.60;;
56477;SDS011;42382;53.210;5.772;2022-07-29T09:32:25;3.58;;;0.57;;
56477;SDS011;42382;53.210;5.772;2022-07-29T09:34:54;2.35;;;0.60;;
56477;SDS011;42382;53.210;5.772;2022-07-29T09:37:41;6.88;;;0.70;;
56477;SDS011;42382;53.210;5.772;2022-07-29T09:40:14;1.80;;;0.52;;
56477;SDS011;42382;53.210;5.772;2022-07-29T09:42:44;6.70;;;1.00;;
56477;SDS011;42382;53.210;5.772;2022-07-29T09:45:11;8.68;;;0.65;;
56477;SDS011;42382;53.210;5.772;2022-07-29T09:47:41;5.78;;;0.68;;
56477;SDS011;42382;53.210;5.772;2022-07-29T09:50:10;4.22;;;0.88;;
56477;SDS011;42382;53.210;5.772;2022-07-29T09:52:44;5.35;;;0.73;;
56477;SDS011;42382;53.210;5.772;2022-07-29T09:55:14;2.67;;;0.60;;
56477;SDS011;42382;53.210;5.772;2022-07-29T09:57:40;3.42;;;0.80;;
56477;SDS011;42382;53.210;5.772;2022-07-29T10:00:11;3.20;;;0.70;;
56477;SDS011;42382;53.210;5.772;2022-07-29T10:02:40;3.85;;;1.10;;
56477;SDS011;42382;53.210;5.772;2022-07-29T10:05:15;3.10;;;0.60;;
56477;SDS011;42382;53.210;5.772;2022-07-29T10:07:45;6.03;;;1.10;;
56477;SDS011;42382;53.210;5.772;2022-07-29T10:10:22;5.57;;;0.85;;
56477;SDS011;42382;53.210;5.772;2022-07-29T10:15:40;5.50;;;1.23;;
56477;SDS011;42382;53.210;5.772;2022-07-29T10:18:09;4.50;;;0.80;;
56477;SDS011;42382;53.210;5.772;2022-07-29T10:20:36;3.35;;;0.82;;
56477;SDS011;42382;53.210;5.772;2022-07-29T10:23:02;4.30;;;1.23;;
56477;SDS011;42382;53.210;5.772;2022-07-29T10:25:29;3.63;;;0.98;;
56477;SDS011;42382;53.210;5.772;2022-07-29T10:27:55;1.52;;;0.68;;
56477;SDS011;42382;53.210;5.772;2022-07-29T10:30:21;4.85;;;0.85;;
56477;SDS011;42382;53.210;5.772;2022-07-29T10:38:45;5.40;;;0.90;;
56477;SDS011;42382;53.210;5.772;2022-07-29T10:46:36;6.22;;;1.10;;
56477;SDS011;42382;53.210;5.772;2022-07-29T10:49:06;4.78;;;1.10;;
56477;SDS011;42382;53.210;5.772;2022-07-29T10:54:17;3.50;;;0.70;;
56477;SDS011;42382;53.210;5.772;2022-07-29T10:56:43;4.30;;;1.20;;
56477;SDS011;42382;53.210;5.772;2022-07-29T11:01:44;6.15;;;1.30;;
56477;SDS011;42382;53.210;5.772;2022-07-29T11:04:14;3.72;;;1.20;;
56477;SDS011;42382;53.210;5.772;2022-07-29T11:09:26;3.88;;;1.02;;
56477;SDS011;42382;53.210;5.772;2022-07-29T11:11:51;4.97;;;1.55;;
56477;SDS011;42382;53.210;5.772;2022-07-29T11:14:18;2.95;;;0.93;;
56477;SDS011;42382;53.210;5.772;2022-07-29T11:17:04;5.60;;;1.73;;
56477;SDS011;42382;53.210;5.772;2022-07-29T11:19:31;3.03;;;0.90;;
56477;SDS011;42382;53.210;5.772;2022-07-29T11:21:57;6.00;;;1.55;;
56477;SDS011;42382;53.210;5.772;2022-07-29T11:24:27;4.40;;;1.70;;
56477;SDS011;42382;53.210;5.772;2022-07-29T11:27:09;4.25;;;1.17;;
56477;SDS011;42382;53.210;5.772;2022-07-29T11:29:57;6.55;;;1.83;;
56477;SDS011;42382;53.210;5.772;2022-07-29T11:32:28;4.45;;;1.55;;
56477;SDS011;42382;53.210;5.772;2022-07-29T11:35:20;3.78;;;1.60;;
56477;SDS011;42382;53.210;5.772;2022-07-29T11:41:18;9.95;;;1.65;;
56477;SDS011;42382;53.210;5.772;2022-07-29T11:43:54;2.30;;;1.17;;
56477;SDS011;42382;53.210;5.772;2022-07-29T11:46:42;3.50;;;1.30;;
56477;SDS011;42382;53.210;5.772;2022-07-29T11:49:25;3.85;;;1.50;;
56477;SDS011;42382;53.210;5.772;2022-07-29T11:54:22;7.28;;;1.50;;
56477;SDS011;42382;53.210;5.772;2022-07-29T11:56:51;6.32;;;1.60;;
56477;SDS011;42382;53.210;5.772;2022-07-29T11:59:17;7.63;;;1.92;;
56477;SDS011;42382;53.210;5.772;2022-07-29T12:01:51;5.32;;;1.52;;
56477;SDS011;42382;53.210;5.772;2022-07-29T12:04:18;3.92;;;1.42;;
56477;SDS011;42382;53.210;5.772;2022-07-29T12:06:48;6.28;;;1.20;;
56477;SDS011;42382;53.210;5.772;2022-07-29T12:09:21;5.22;;;1.70;;
56477;SDS011;42382;53.210;5.772;2022-07-29T12:11:47;5.72;;;1.80;;
56477;SDS011;42382;53.210;5.772;2022-07-29T12:14:29;4.25;;;1.13;;
56477;SDS011;42382;53.210;5.772;2022-07-29T12:16:56;5.82;;;1.63;;
56477;SDS011;42382;53.210;5.772;2022-07-29T12:19:22;6.50;;;1.60;;
56477;SDS011;42382;53.210;5.772;2022-07-29T12:21:52;6.68;;;1.88;;
56477;SDS011;42382;53.210;5.772;2022-07-29T12:24:19;5.28;;;1.73;;
56477;SDS011;42382;53.210;5.772;2022-07-29T12:26:56;8.90;;;1.77;;
56477;SDS011;42382;53.210;5.772;2022-07-29T12:29:23;6.07;;;2.55;;
56477;SDS011;42382;53.210;5.772;2022-07-29T12:31:52;6.32;;;1.27;;
56477;SDS011;42382;53.210;5.772;2022-07-29T12:34:26;6.35;;;1.55;;
56477;SDS011;42382;53.210;5.772;2022-07-29T12:36:53;5.75;;;2.00;;
56477;SDS011;42382;53.210;5.772;2022-07-29T12:39:19;6.40;;;1.63;;
56477;SDS011;42382;53.210;5.772;2022-07-29T12:41:45;5.05;;;1.63;;
56477;SDS011;42382;53.210;5.772;2022-07-29T12:44:10;3.20;;;1.30;;
56477;SDS011;42382;53.210;5.772;2022-07-29T12:46:36;6.13;;;1.58;;
56477;SDS011;42382;53.210;5.772;2022-07-29T12:49:02;6.55;;;1.77;;
56477;SDS011;42382;53.210;5.772;2022-07-29T12:51:30;4.53;;;1.40;;
56477;SDS011;42382;53.210;5.772;2022-07-29T12:54:12;4.63;;;1.70;;
56477;SDS011;42382;53.210;5.772;2022-07-29T12:56:40;2.25;;;1.20;;
56477;SDS011;42382;53.210;5.772;2022-07-29T12:59:20;3.55;;;1.25;;
56477;SDS011;42382;53.210;5.772;2022-07-29T13:01:47;5.03;;;1.50;;
56477;SDS011;42382;53.210;5.772;2022-07-29T13:09:42;4.95;;;1.48;;
56477;SDS011;42382;53.210;5.772;2022-07-29T13:12:10;5.45;;;1.67;;
56477;SDS011;42382;53.210;5.772;2022-07-29T13:14:37;6.30;;;1.95;;
56477;SDS011;42382;53.210;5.772;2022-07-29T13:17:06;6.95;;;1.90;;
56477;SDS011;42382;53.210;5.772;2022-07-29T13:19:45;4.85;;;1.60;;
56477;SDS011;42382;53.210;5.772;2022-07-29T13:22:13;4.53;;;1.60;;
56477;SDS011;42382;53.210;5.772;2022-07-29T13:24:59;5.28;;;1.90;;
56477;SDS011;42382;53.210;5.772;2022-07-29T13:27:27;5.55;;;1.60;;
56477;SDS011;42382;53.210;5.772;2022-07-29T13:29:54;2.85;;;1.50;;
56477;SDS011;42382;53.210;5.772;2022-07-29T13:32:22;6.18;;;1.88;;
56477;SDS011;42382;53.210;5.772;2022-07-29T13:34:50;6.97;;;1.70;;
56477;SDS011;42382;53.210;5.772;2022-07-29T13:37:16;6.53;;;1.80;;
56477;SDS011;42382;53.210;5.772;2022-07-29T13:39:42;6.65;;;1.50;;
56477;SDS011;42382;53.210;5.772;2022-07-29T13:42:08;5.65;;;1.33;;
56477;SDS011;42382;53.210;5.772;2022-07-29T13:44:34;3.95;;;1.33;;
56477;SDS011;42382;53.210;5.772;2022-07-29T13:47:00;3.72;;;1.50;;
56477;SDS011;42382;53.210;5.772;2022-07-29T13:49:26;3.15;;;1.40;;
56477;SDS011;42382;53.210;5.772;2022-07-29T13:51:52;5.68;;;1.50;;
56477;SDS011;42382;53.210;5.772;2022-07-29T13:54:18;3.20;;;1.15;;
56477;SDS011;42382;53.210;5.772;2022-07-29T13:56:44;4.10;;;1.73;;
56477;SDS011;42382;53.210;5.772;2022-07-29T13:59:10;8.93;;;2.00;;
56477;SDS011;42382;53.210;5.772;2022-07-29T14:01:36;7.95;;;2.05;;
56477;SDS011;42382;53.210;5.772;2022-07-29T14:04:02;7.20;;;1.65;;
56477;SDS011;42382;53.210;5.772;2022-07-29T14:06:28;5.25;;;1.52;;
56477;SDS011;42382;53.210;5.772;2022-07-29T14:08:54;3.65;;;1.13;;
56477;SDS011;42382;53.210;5.772;2022-07-29T14:11:19;5.47;;;1.58;;
56477;SDS011;42382;53.210;5.772;2022-07-29T14:13:45;7.78;;;1.98;;
56477;SDS011;42382;53.210;5.772;2022-07-29T14:16:11;5.75;;;1.13;;
56477;SDS011;42382;53.210;5.772;2022-07-29T14:18:36;3.72;;;1.15;;
56477;SDS011;42382;53.210;5.772;2022-07-29T14:21:02;4.05;;;0.90;;
56477;SDS011;42382;53.210;5.772;2022-07-29T14:23:28;3.97;;;0.90;;
56477;SDS011;42382;53.210;5.772;2022-07-29T14:25:54;3.88;;;1.05;;
56477;SDS011;42382;53.210;5.772;2022-07-29T14:28:19;5.55;;;0.98;;
56477;SDS011;42382;53.210;5.772;2022-07-29T14:30:45;5.78;;;1.70;;
56477;SDS011;42382;53.210;5.772;2022-07-29T14:33:11;4.55;;;1.20;;
56477;SDS011;42382;53.210;5.772;2022-07-29T14:35:37;4.60;;;1.00;;
56477;SDS011;42382;53.210;5.772;2022-07-29T14:38:02;4.80;;;0.98;;
56477;SDS011;42382;53.210;5.772;2022-07-29T14:40:28;2.88;;;0.65;;
56477;SDS011;42382;53.210;5.772;2022-07-29T14:42:54;3.85;;;0.68;;
56477;SDS011;42382;53.210;5.772;2022-07-29T14:45:19;5.50;;;1.10;;
56477;SDS011;42382;53.210;5.772;2022-07-29T14:47:48;6.68;;;2.28;;
56477;SDS011;42382;53.210;5.772;2022-07-29T14:50:15;5.38;;;1.20;;
56477;SDS011;42382;53.210;5.772;2022-07-29T14:52:40;4.75;;;1.02;;
56477;SDS011;42382;53.210;5.772;2022-07-29T14:55:06;2.35;;;0.73;;
56477;SDS011;42382;53.210;5.772;2022-07-29T14:57:32;7.40;;;1.35;;
56477;SDS011;42382;53.210;5.772;2022-07-29T14:59:58;8.38;;;1.08;;
56477;SDS011;42382;53.210;5.772;2022-07-29T15:02:24;5.60;;;1.25;;
56477;SDS011;42382;53.210;5.772;2022-07-29T15:04:49;3.88;;;1.02;;
56477;SDS011;42382;53.210;5.772;2022-07-29T15:07:15;3.33;;;0.88;;
56477;SDS011;42382;53.210;5.772;2022-07-29T15:09:41;6.78;;;1.30;;
56477;SDS011;42382;53.210;5.772;2022-07-29T15:12:07;4.00;;;1.17;;
56477;SDS011;42382;53.210;5.772;2022-07-29T15:14:33;4.50;;;1.45;;
56477;SDS011;42382;53.210;5.772;2022-07-29T15:16:59;3.50;;;1.20;;
56477;SDS011;42382;53.210;5.772;2022-07-29T15:19:24;5.03;;;1.20;;
56477;SDS011;42382;53.210;5.772;2022-07-29T15:21:50;6.30;;;1.80;;
56477;SDS011;42382;53.210;5.772;2022-07-29T15:24:16;4.63;;;1.08;;
56477;SDS011;42382;53.210;5.772;2022-07-29T15:26:42;6.18;;;1.73;;
56477;SDS011;42382;53.210;5.772;2022-07-29T15:29:08;5.53;;;1.50;;
56477;SDS011;42382;53.210;5.772;2022-07-29T15:31:33;8.02;;;1.40;;
56477;SDS011;42382;53.210;5.772;2022-07-29T15:33:59;5.20;;;1.40;;
56477;SDS011;42382;53.210;5.772;2022-07-29T15:36:25;4.65;;;1.10;;
56477;SDS011;42382;53.210;5.772;2022-07-29T15:38:53;5.25;;;1.27;;
56477;SDS011;42382;53.210;5.772;2022-07-29T15:41:20;3.83;;;1.25;;
56477;SDS011;42382;53.210;5.772;2022-07-29T15:43:45;7.00;;;1.40;;
56477;SDS011;42382;53.210;5.772;2022-07-29T15:46:13;8.82;;;1.65;;
56477;SDS011;42382;53.210;5.772;2022-07-29T15:48:57;10.23;;;2.05;;